createdAt,value
2022-12-24T00:00:12.416Z,100.00
2022-12-24T00:02:41.320Z,100.00
2022-12-24T00:05:11.852Z,100.00
2022-12-24T00:07:41.693Z,100.00
2022-12-24T00:10:12.084Z,100.00
2022-12-24T00:12:40.911Z,100.00
2022-12-24T00:15:12.670Z,100.00
2022-12-24T00:17:41.477Z,100.00
2022-12-24T00:20:11.723Z,100.00
2022-12-24T00:22:40.476Z,100.00
2022-12-24T00:25:10.296Z,100.00
2022-12-24T00:27:39.023Z,100.00
2022-12-24T00:30:12.657Z,100.00
2022-12-24T00:32:41.484Z,100.00
2022-12-24T00:35:10.926Z,100.00
2022-12-24T00:37:39.645Z,100.00
2022-12-24T00:40:10.521Z,100.00
2022-12-24T00:42:39.271Z,100.00
2022-12-24T00:45:11.301Z,100.00
2022-12-24T00:47:40.199Z,100.00
2022-12-24T00:50:10.502Z,100.00
2022-12-24T00:52:39.427Z,100.00
2022-12-24T00:55:10.212Z,100.00
2022-12-24T00:57:39.035Z,100.00
2022-12-24T01:00:11.984Z,100.00
2022-12-24T01:02:40.909Z,100.00
2022-12-24T01:05:12.075Z,100.00
2022-12-24T01:07:44.809Z,100.00
2022-12-24T01:10:15.909Z,100.00
2022-12-24T01:12:46.009Z,100.00
2022-12-24T01:15:16.893Z,100.00
2022-12-24T01:17:45.744Z,100.00
2022-12-24T01:20:18.137Z,100.00
2022-12-24T01:22:47.377Z,100.00
2022-12-24T01:25:16.504Z,100.00
2022-12-24T01:27:45.275Z,100.00
2022-12-24T01:30:17.353Z,100.00
2022-12-24T01:32:46.116Z,100.00
2022-12-24T01:35:14.920Z,100.00
2022-12-24T01:37:44.632Z,100.00
2022-12-24T01:40:36.339Z,100.00
2022-12-24T01:43:28.540Z,100.00
2022-12-24T01:46:01.122Z,100.00
2022-12-24T01:48:41.577Z,99.12
2022-12-24T01:51:20.472Z,99.44
2022-12-24T01:53:55.390Z,100.00
2022-12-24T01:56:25.316Z,100.00
2022-12-24T01:59:02.022Z,100.00
2022-12-24T02:01:32.340Z,100.00
2022-12-24T02:04:03.466Z,100.00
2022-12-24T02:06:32.211Z,100.00
2022-12-24T02:09:01.128Z,100.00
2022-12-24T02:11:31.531Z,100.00
2022-12-24T02:14:04.133Z,100.00
2022-12-24T02:16:48.876Z,100.00
2022-12-24T02:20:00.133Z,98.76
2022-12-24T02:22:48.114Z,98.19
2022-12-24T02:25:45.476Z,98.79
2022-12-24T02:28:36.494Z,99.71
2022-12-24T02:31:13.259Z,100.00
2022-12-24T02:33:51.654Z,100.00
2022-12-24T02:36:29.517Z,100.00
2022-12-24T02:39:05.751Z,100.00
2022-12-24T02:41:52.825Z,100.00
2022-12-24T02:44:25.983Z,100.00
2022-12-24T02:46:58.648Z,100.00
2022-12-24T02:49:27.774Z,100.00
2022-12-24T02:51:56.605Z,100.00
2022-12-24T02:54:25.492Z,100.00
2022-12-24T02:57:15.129Z,100.00
2022-12-24T03:00:03.966Z,100.00
2022-12-24T03:02:56.598Z,100.00
2022-12-24T03:05:38.009Z,100.00
2022-12-24T03:08:15.559Z,100.00
2022-12-24T03:10:56.204Z,100.00
2022-12-24T03:18:30.922Z,100.00
2022-12-24T03:21:07.631Z,100.00
2022-12-24T03:23:35.931Z,100.00
2022-12-24T03:26:11.335Z,100.00
2022-12-24T03:28:42.830Z,100.00
2022-12-24T03:31:13.369Z,100.00
2022-12-24T03:33:44.428Z,100.00
2022-12-24T03:36:13.838Z,100.00
2022-12-24T03:38:42.957Z,100.00
2022-12-24T03:41:11.767Z,100.00
2022-12-24T03:43:40.529Z,100.00
2022-12-24T03:46:10.626Z,99.79
2022-12-24T03:48:39.443Z,100.00
2022-12-24T03:51:20.288Z,100.00
2022-12-24T03:53:49.422Z,100.00
2022-12-24T03:56:18.259Z,99.68
2022-12-24T03:58:47.021Z,99.75
2022-12-24T04:01:16.787Z,99.33
2022-12-24T04:03:46.486Z,99.12
2022-12-24T04:06:19.021Z,99.58
2022-12-24T04:08:48.057Z,97.28
2022-12-24T04:11:19.146Z,97.01
2022-12-24T04:13:48.028Z,97.24
2022-12-24T04:16:18.270Z,96.93
2022-12-24T04:18:47.048Z,94.94
2022-12-24T04:21:17.884Z,96.14
2022-12-24T04:23:47.971Z,94.64
2022-12-24T04:26:17.014Z,94.32
2022-12-24T04:28:46.145Z,94.04
2022-12-24T04:31:18.168Z,94.02
2022-12-24T04:33:47.802Z,92.50
2022-12-24T04:36:20.766Z,93.59
2022-12-24T04:38:50.477Z,93.07
2022-12-24T04:41:24.261Z,93.24
2022-12-24T04:43:55.226Z,92.89
2022-12-24T04:46:27.365Z,93.50
2022-12-24T04:48:56.521Z,93.34
2022-12-24T04:51:28.289Z,93.31
2022-12-24T04:53:58.467Z,93.81
2022-12-24T04:56:30.662Z,93.30
2022-12-24T04:59:01.520Z,93.67
2022-12-24T05:01:33.506Z,93.59
2022-12-24T05:04:03.224Z,93.93
2022-12-24T05:06:34.397Z,93.49
2022-12-24T05:09:03.753Z,92.60
2022-12-24T05:11:33.415Z,91.45
2022-12-24T05:14:04.455Z,90.77
2022-12-24T05:16:33.252Z,91.17
2022-12-24T05:19:02.068Z,90.61
2022-12-24T05:21:32.228Z,91.03
2022-12-24T05:24:18.141Z,90.93
2022-12-24T05:26:51.419Z,90.93
2022-12-24T05:29:20.261Z,91.35
2022-12-24T05:31:49.294Z,91.09
2022-12-24T05:34:19.156Z,92.35
2022-12-24T05:36:49.432Z,92.84
2022-12-24T05:39:19.777Z,92.61
2022-12-24T05:41:48.619Z,92.21
2022-12-24T05:44:18.104Z,92.35
2022-12-24T05:46:47.334Z,90.95
2022-12-24T05:49:16.420Z,92.11
2022-12-24T05:51:45.429Z,91.56
2022-12-24T05:54:15.635Z,91.53
2022-12-24T05:56:44.406Z,92.35
2022-12-24T05:59:13.482Z,92.25
2022-12-24T06:01:45.701Z,92.05
2022-12-24T06:04:14.716Z,91.76
2022-12-24T06:06:43.589Z,92.47
2022-12-24T06:09:12.399Z,92.95
2022-12-24T06:11:42.738Z,92.95
2022-12-24T06:14:11.549Z,92.50
2022-12-24T06:16:40.423Z,92.35
2022-12-24T06:19:09.266Z,91.65
2022-12-24T06:21:38.095Z,90.64
2022-12-24T06:24:07.663Z,91.10
2022-12-24T06:26:36.484Z,91.06
2022-12-24T06:29:07.382Z,89.49
2022-12-24T06:31:37.301Z,88.30
2022-12-24T06:34:06.099Z,88.89
2022-12-24T06:36:34.817Z,87.98
2022-12-24T06:39:03.645Z,88.05
2022-12-24T06:41:32.830Z,87.75
2022-12-24T06:44:02.051Z,86.69
2022-12-24T06:46:32.320Z,84.53
2022-12-24T06:49:01.177Z,84.78
2022-12-24T06:51:29.864Z,84.96
2022-12-24T06:53:58.689Z,83.91
2022-12-24T06:56:27.399Z,84.64
2022-12-24T06:59:00.192Z,82.65
2022-12-24T07:01:35.200Z,83.21
2022-12-24T07:04:04.221Z,82.04
2022-12-24T07:06:35.133Z,82.11
2022-12-24T07:09:04.031Z,81.35
2022-12-24T07:11:33.024Z,82.72
2022-12-24T07:14:01.797Z,80.97
2022-12-24T07:16:30.860Z,80.81
2022-12-24T07:19:01.523Z,81.00
2022-12-24T07:21:30.468Z,80.70
2022-12-24T07:23:59.960Z,79.75
2022-12-24T07:26:30.243Z,80.30
2022-12-24T07:28:59.265Z,79.62
2022-12-24T07:31:28.434Z,81.27
2022-12-24T07:33:57.584Z,80.52
2022-12-24T07:36:28.427Z,80.37
2022-12-24T07:38:57.338Z,80.78
2022-12-24T07:41:26.366Z,80.29
2022-12-24T07:43:55.254Z,80.47
2022-12-24T07:46:24.380Z,80.45
2022-12-24T07:48:53.229Z,80.46
2022-12-24T07:51:22.442Z,81.27
2022-12-24T07:53:52.643Z,81.46
2022-12-24T07:56:21.376Z,82.49
2022-12-24T07:58:52.256Z,82.73
2022-12-24T08:01:21.283Z,83.12
2022-12-24T08:03:51.568Z,83.07
2022-12-24T08:06:20.447Z,84.10
2022-12-24T08:08:49.329Z,84.47
2022-12-24T08:11:20.582Z,84.45
2022-12-24T08:13:50.482Z,84.57
2022-12-24T08:16:20.387Z,84.56
2022-12-24T08:18:51.320Z,84.56
2022-12-24T08:21:20.438Z,84.31
2022-12-24T08:23:54.263Z,84.31
2022-12-24T08:26:26.955Z,83.83
2022-12-24T08:28:55.849Z,83.56
2022-12-24T08:31:28.809Z,84.22
2022-12-24T08:33:59.216Z,84.04
2022-12-24T08:36:28.245Z,83.38
2022-12-24T08:38:57.017Z,83.73
2022-12-24T08:41:27.236Z,83.11
2022-12-24T08:43:56.033Z,82.47
2022-12-24T08:46:24.957Z,83.07
2022-12-24T08:48:53.827Z,81.61
2022-12-24T08:51:22.820Z,81.96
2022-12-24T08:53:51.577Z,81.69
2022-12-24T08:56:20.556Z,79.90
2022-12-24T08:58:51.040Z,80.54
2022-12-24T09:01:22.601Z,80.89
2022-12-24T09:03:55.667Z,80.19
2022-12-24T09:06:26.106Z,80.63
2022-12-24T09:08:55.087Z,80.43
2022-12-24T09:11:23.880Z,79.45
2022-12-24T09:13:54.160Z,78.19
2022-12-24T09:16:24.544Z,77.90
2022-12-24T09:18:55.368Z,78.15
2022-12-24T09:21:26.164Z,77.99
2022-12-24T09:23:55.199Z,77.46
2022-12-24T09:26:27.452Z,76.86
2022-12-24T09:29:02.420Z,76.96
2022-12-24T09:31:31.534Z,75.88
2022-12-24T09:34:04.508Z,76.59
2022-12-24T09:36:33.792Z,76.73
2022-12-24T09:39:03.092Z,76.99
2022-12-24T09:41:51.852Z,77.04
2022-12-24T09:44:40.479Z,77.36
2022-12-24T09:47:24.190Z,77.80
2022-12-24T09:50:00.977Z,78.59
2022-12-24T09:52:37.901Z,78.54
2022-12-24T09:55:23.126Z,78.60
2022-12-24T09:57:55.994Z,78.18
2022-12-24T10:00:30.796Z,77.97
2022-12-24T10:03:00.170Z,77.75
2022-12-24T10:05:42.807Z,77.86
2022-12-24T10:08:27.725Z,77.68
2022-12-24T10:11:04.405Z,77.96
2022-12-24T10:13:55.426Z,77.77
2022-12-24T10:16:38.703Z,78.40
2022-12-24T10:19:18.444Z,78.01
2022-12-24T10:22:08.768Z,77.51
2022-12-24T10:24:51.812Z,77.11
2022-12-24T10:27:29.447Z,77.13
2022-12-24T10:30:13.257Z,77.25
2022-12-24T10:32:51.777Z,77.89
2022-12-24T10:35:28.119Z,77.15
2022-12-24T10:37:58.227Z,77.40
2022-12-24T10:40:36.831Z,76.83
2022-12-24T10:43:16.324Z,77.54
2022-12-24T10:45:51.042Z,77.15
2022-12-24T10:48:29.436Z,77.36
2022-12-24T10:51:04.782Z,78.04
2022-12-24T10:53:43.307Z,77.87
2022-12-24T10:56:16.549Z,78.21
2022-12-24T10:58:46.682Z,77.95
2022-12-24T11:01:15.849Z,78.84
2022-12-24T11:03:46.334Z,79.57
2022-12-24T11:06:21.176Z,79.83
2022-12-24T11:08:50.157Z,79.07
2022-12-24T11:11:21.877Z,80.41
2022-12-24T11:13:57.650Z,80.74
2022-12-24T11:16:30.744Z,80.97
2022-12-24T11:19:05.425Z,82.92
2022-12-24T11:21:39.083Z,87.79
2022-12-24T11:24:25.892Z,90.32
2022-12-24T11:26:54.991Z,90.39
2022-12-24T11:29:26.752Z,89.69
2022-12-24T11:32:19.003Z,88.93
2022-12-24T11:34:49.807Z,88.77
2022-12-24T11:37:23.264Z,88.24
2022-12-24T11:39:55.675Z,87.55
2022-12-24T11:42:32.805Z,88.04
2022-12-24T11:45:05.545Z,88.03
2022-12-24T11:47:37.779Z,86.93
2022-12-24T11:50:31.851Z,86.59
2022-12-24T11:53:12.398Z,85.83
2022-12-24T11:55:48.051Z,85.76
2022-12-24T11:58:27.160Z,85.21
2022-12-24T12:01:15.788Z,83.90
2022-12-24T12:03:49.930Z,84.43
2022-12-24T12:06:40.322Z,84.00
2022-12-24T12:09:16.755Z,84.16
2022-12-24T12:11:52.934Z,85.16
2022-12-24T12:14:29.427Z,84.97
2022-12-24T12:17:05.269Z,84.47
2022-12-24T12:19:45.007Z,83.98
2022-12-24T12:22:29.488Z,82.46
2022-12-24T12:25:01.203Z,83.31
2022-12-24T12:27:39.110Z,82.75
2022-12-24T12:30:17.897Z,82.75
2022-12-24T12:32:55.509Z,83.84
2022-12-24T12:35:31.510Z,83.35
2022-12-24T12:38:10.617Z,83.43
2022-12-24T12:41:07.059Z,82.86
2022-12-24T12:44:01.216Z,82.95
2022-12-24T12:46:47.763Z,81.53
2022-12-24T12:49:33.905Z,82.15
2022-12-24T12:52:15.473Z,81.80
2022-12-24T12:55:07.425Z,81.08
2022-12-24T12:57:41.165Z,81.09
2022-12-24T13:00:14.381Z,81.85
2022-12-24T13:03:40.113Z,80.96
2022-12-24T13:06:47.605Z,81.85
2022-12-24T13:10:03.135Z,80.75
2022-12-24T13:13:07.621Z,81.54
2022-12-24T13:16:23.677Z,82.20
2022-12-24T13:19:10.308Z,82.08
2022-12-24T13:21:48.981Z,80.94
2022-12-24T13:24:22.558Z,81.51
2022-12-24T13:27:07.876Z,81.44
2022-12-24T13:29:52.594Z,81.14
2022-12-24T13:32:47.404Z,81.46
2022-12-24T13:35:38.715Z,81.79
2022-12-24T13:38:47.205Z,82.11
2022-12-24T13:41:59.043Z,81.75
2022-12-24T13:44:36.276Z,81.85
2022-12-24T13:47:32.388Z,82.16
2022-12-24T13:50:24.857Z,81.73
2022-12-24T13:52:55.671Z,82.00
2022-12-24T13:55:25.163Z,82.10
2022-12-24T13:58:01.764Z,81.89
2022-12-24T14:00:42.815Z,81.78
2022-12-24T14:03:29.115Z,81.69
2022-12-24T14:06:02.349Z,82.31
2022-12-24T14:08:38.957Z,82.07
2022-12-24T14:11:13.964Z,81.67
2022-12-24T14:14:29.012Z,81.79
2022-12-24T14:17:02.550Z,81.99
2022-12-24T14:19:42.384Z,81.75
2022-12-24T14:22:29.781Z,81.82
2022-12-24T14:25:03.397Z,82.17
2022-12-24T14:27:45.852Z,82.04
2022-12-24T14:30:22.560Z,82.00
2022-12-24T14:32:54.220Z,81.90
2022-12-24T14:35:27.466Z,82.10
2022-12-24T14:38:02.782Z,82.23
2022-12-24T14:40:36.166Z,82.57
2022-12-24T14:43:21.909Z,82.37
2022-12-24T14:46:00.875Z,82.11
2022-12-24T14:48:40.405Z,82.70
2022-12-24T14:51:18.947Z,82.72
2022-12-24T14:54:32.964Z,82.85
2022-12-24T14:57:31.957Z,83.52
2022-12-24T15:00:03.389Z,83.63
2022-12-24T15:02:44.359Z,83.56
2022-12-24T15:05:19.831Z,84.25
2022-12-24T15:07:59.284Z,84.50
2022-12-24T15:10:35.775Z,84.63
2022-12-24T15:13:08.642Z,85.00
2022-12-24T15:15:38.056Z,85.29
2022-12-24T15:18:08.890Z,84.74
2022-12-24T15:20:39.309Z,85.04
2022-12-24T15:23:08.066Z,84.65
2022-12-24T15:25:36.879Z,84.35
2022-12-24T15:28:18.743Z,85.15
2022-12-24T15:30:48.333Z,84.43
2022-12-24T15:33:18.122Z,84.26
2022-12-24T15:35:55.051Z,83.61
2022-12-24T15:38:32.822Z,83.96
2022-12-24T15:41:06.155Z,83.89
2022-12-24T15:43:39.732Z,83.67
2022-12-24T15:46:09.395Z,83.53
2022-12-24T15:48:39.188Z,83.06
2022-12-24T15:51:09.479Z,83.33
2022-12-24T15:53:44.844Z,83.13
2022-12-24T15:56:28.597Z,83.39
2022-12-24T15:59:31.273Z,82.74
2022-12-24T16:02:35.667Z,82.31
2022-12-24T16:05:35.919Z,82.49
2022-12-24T16:08:30.645Z,82.85
2022-12-24T16:11:19.239Z,82.59
2022-12-24T16:14:14.607Z,82.24
2022-12-24T16:16:49.170Z,82.66
2022-12-24T16:19:24.205Z,82.40
2022-12-24T16:21:56.279Z,82.04
2022-12-24T16:24:32.259Z,81.77
2022-12-24T16:27:01.660Z,81.48
2022-12-24T16:29:30.747Z,80.99
2022-12-24T16:32:00.847Z,81.04
2022-12-24T16:34:32.523Z,81.02
2022-12-24T16:37:02.606Z,80.98
2022-12-24T16:39:36.112Z,81.17
2022-12-24T16:42:23.732Z,81.47
2022-12-24T16:44:55.594Z,82.12
2022-12-24T16:47:33.617Z,82.47
2022-12-24T16:50:07.459Z,81.91
2022-12-24T16:52:36.595Z,81.69
2022-12-24T16:55:07.721Z,81.67
2022-12-24T16:57:41.024Z,81.11
2022-12-24T17:00:16.496Z,81.06
2022-12-24T17:02:45.710Z,81.18
2022-12-24T17:05:19.037Z,81.46
2022-12-24T17:07:47.859Z,81.83
2022-12-24T17:10:18.484Z,82.63
2022-12-24T17:12:47.744Z,82.74
2022-12-24T17:15:17.042Z,82.52
2022-12-24T17:17:48.005Z,82.42
2022-12-24T17:20:23.662Z,82.00
2022-12-24T17:22:53.231Z,82.20
2022-12-24T17:25:23.736Z,82.59
2022-12-24T17:27:53.400Z,82.67
2022-12-24T17:30:22.528Z,83.01
2022-12-24T17:32:52.864Z,82.98
2022-12-24T17:35:21.949Z,82.76
2022-12-24T17:37:51.624Z,82.56
2022-12-24T17:40:22.650Z,82.70
2022-12-24T17:42:53.371Z,82.41
2022-12-24T17:45:23.466Z,82.72
2022-12-24T17:47:57.542Z,83.48
2022-12-24T17:50:27.681Z,83.51
2022-12-24T17:52:56.700Z,83.51
2022-12-24T17:55:27.606Z,83.12
2022-12-24T17:58:02.305Z,83.44
2022-12-24T18:00:33.358Z,83.50
2022-12-24T18:03:03.379Z,83.04
2022-12-24T18:05:35.154Z,83.64
2022-12-24T18:08:04.112Z,83.51
2022-12-24T18:10:35.440Z,83.53
2022-12-24T18:13:05.205Z,83.37
2022-12-24T18:15:37.969Z,83.35
2022-12-24T18:18:09.175Z,83.14
2022-12-24T18:20:46.012Z,83.16
2022-12-24T18:23:15.948Z,83.43
2022-12-24T18:25:46.431Z,83.48
2022-12-24T18:28:15.444Z,83.61
2022-12-24T18:30:46.438Z,83.48
2022-12-24T18:33:15.403Z,83.06
2022-12-24T18:35:44.693Z,83.60
2022-12-24T18:38:13.592Z,84.13
2022-12-24T18:40:43.872Z,84.68
2022-12-24T18:43:14.692Z,84.59
2022-12-24T18:45:47.850Z,83.97
2022-12-24T18:48:17.111Z,83.79
2022-12-24T18:50:56.909Z,83.13
2022-12-24T18:53:26.006Z,83.46
2022-12-24T18:55:55.361Z,83.07
2022-12-24T18:58:25.590Z,83.31
2022-12-24T19:00:54.597Z,83.62
2022-12-24T19:03:23.626Z,83.37
2022-12-24T19:05:52.656Z,83.53
2022-12-24T19:08:55.587Z,83.44
2022-12-24T19:11:12.834Z,83.42
2022-12-24T19:13:53.286Z,83.48
2022-12-24T19:16:24.166Z,84.04
2022-12-24T19:18:57.722Z,84.06
2022-12-24T19:21:26.728Z,84.87
2022-12-24T19:23:55.730Z,84.74
2022-12-24T19:26:26.182Z,84.36
2022-12-24T19:28:57.252Z,84.44
2022-12-24T19:31:28.382Z,84.55
2022-12-24T19:33:59.066Z,84.99
2022-12-24T19:36:34.658Z,84.70
2022-12-24T19:39:08.641Z,84.61
2022-12-24T19:41:39.127Z,84.39
2022-12-24T19:44:17.681Z,84.11
2022-12-24T19:46:48.934Z,84.97
2022-12-24T19:49:19.877Z,85.38
2022-12-24T19:51:55.839Z,84.83
2022-12-24T19:54:28.259Z,85.71
2022-12-24T19:57:00.610Z,85.17
2022-12-24T19:59:45.201Z,84.86
2022-12-24T20:02:16.196Z,84.80
2022-12-24T20:04:46.208Z,84.80
2022-12-24T20:07:17.010Z,84.70
2022-12-24T20:09:53.745Z,84.22
2022-12-24T20:12:28.187Z,83.98
2022-12-24T20:15:02.150Z,84.89
2022-12-24T20:17:40.203Z,84.87
2022-12-24T20:20:11.834Z,84.53
2022-12-24T20:22:42.236Z,85.36
2022-12-24T20:25:12.141Z,84.68
2022-12-24T20:27:41.277Z,84.26
2022-12-24T20:30:14.458Z,85.46
2022-12-24T20:32:43.845Z,85.90
2022-12-24T20:35:13.602Z,85.56
2022-12-24T20:37:46.268Z,86.15
2022-12-24T20:40:15.612Z,86.07
2022-12-24T20:42:44.750Z,85.14
2022-12-24T20:45:16.503Z,84.68
2022-12-24T20:47:45.416Z,84.50
2022-12-24T20:50:14.305Z,85.60
2022-12-24T20:52:43.237Z,85.11
2022-12-24T20:55:12.104Z,85.13
2022-12-24T20:57:44.381Z,84.54
2022-12-24T21:00:17.433Z,84.25
2022-12-24T21:02:47.295Z,84.73
2022-12-24T21:05:16.755Z,85.16
2022-12-24T21:07:46.019Z,84.29
2022-12-24T21:10:21.031Z,84.46
2022-12-24T21:12:48.837Z,85.19
2022-12-24T21:15:20.652Z,84.49
2022-12-24T21:17:50.277Z,84.20
2022-12-24T21:20:20.476Z,83.95
2022-12-24T21:22:49.906Z,83.93
2022-12-24T21:25:20.452Z,84.08
2022-12-24T21:27:50.771Z,84.49
2022-12-24T21:30:21.319Z,84.23
2022-12-24T21:32:50.677Z,84.24
2022-12-24T21:35:19.671Z,85.10
2022-12-24T21:37:48.737Z,84.96
2022-12-24T21:40:18.277Z,84.61
2022-12-24T21:42:47.396Z,84.90
2022-12-24T21:52:26.570Z,84.31
2022-12-24T21:54:53.948Z,83.74
2022-12-24T21:57:39.789Z,83.98
2022-12-24T22:00:26.132Z,84.04
2022-12-24T22:02:56.788Z,84.63
2022-12-24T22:05:26.391Z,84.64
2022-12-24T22:11:13.304Z,84.41
2022-12-24T22:13:42.150Z,84.17
2022-12-24T22:16:14.538Z,83.65
2022-12-24T22:18:43.468Z,83.97
2022-12-24T22:21:12.538Z,83.77
2022-12-24T22:23:42.696Z,84.05
2022-12-24T22:26:15.264Z,83.97
2022-12-24T22:28:44.500Z,83.95
2022-12-24T22:31:19.734Z,83.78
2022-12-24T22:33:48.646Z,83.36
2022-12-24T22:36:18.585Z,84.79
2022-12-24T22:38:47.387Z,84.31
2022-12-24T22:41:18.624Z,84.57
2022-12-24T22:43:47.488Z,84.02
2022-12-24T22:46:16.774Z,84.90
2022-12-24T22:48:46.927Z,84.78
2022-12-24T22:51:19.538Z,84.75
2022-12-24T22:53:48.810Z,85.23
2022-12-24T22:56:23.229Z,85.85
2022-12-24T22:58:56.132Z,86.12
2022-12-24T23:01:34.560Z,86.43
2022-12-24T23:04:04.023Z,86.16
2022-12-24T23:06:33.080Z,85.76
2022-12-24T23:09:02.272Z,86.67
2022-12-24T23:11:32.519Z,86.05
2022-12-24T23:14:18.794Z,85.47
2022-12-24T23:16:47.615Z,85.14
2022-12-24T23:19:16.691Z,85.99
2022-12-24T23:21:45.399Z,86.39
2022-12-24T23:24:14.546Z,87.61
2022-12-24T23:26:44.905Z,88.02
2022-12-24T23:29:13.858Z,87.60
2022-12-24T23:31:42.814Z,87.84
2022-12-24T23:34:11.841Z,88.33
2022-12-24T23:36:40.635Z,87.67
2022-12-24T23:39:09.435Z,87.33
2022-12-24T23:41:38.280Z,87.02
2022-12-24T23:44:09.306Z,87.70
2022-12-24T23:46:38.091Z,88.04
2022-12-24T23:49:15.784Z,88.07
2022-12-24T23:51:44.589Z,88.43
2022-12-24T23:54:13.311Z,88.92
2022-12-24T23:56:42.021Z,88.53
2022-12-24T23:59:12.207Z,88.38
